»·PEaware :: N851TX KTRI-KATL

N851TX :: KTRI-KATL

FLIGHT INFORMATION

Flight Status: Arrived
Operator: Privately registered:
United States
More flights under this callsign
Pilot: Andrew J. (13363)
Aircraft: SOCATA TBM-900
(TBM9)
More flights by this aircraft type
Origin: KTRI Tri-Cities Regl Tn/Va
United States
Destination: KATL Hartsfield-Jackson Atlanta
United States
More flights between these airports :: More routes between these airports
Route: SOT WHINZ4
File this flight plan on PilotEdge
Remarks:
Altitude:
(Current/Filed)
24,000ft
Speed:
(Current/Filed)
307kts
Departed: 01-Jul-18 08:35 PM
Arrived: 01-Jul-18 09:27 PM
Distance/Time
Traveled:
196nm/0:51
Distance/Time
To Go:
Arrived

Flight Plot

Page will automatically refresh every two minutes.

Flight plan parsing failed; only flown route is shown


Map Options




Map Legend


Flown Route
Filed Route
Departure Airport
Arrival Airport
Navaid (VOR, NDB)
Fix

Horizontal Profiles

Position Reports

Time Latitude Longitude Heading Altitude Ground
Speed
01-Jul-18 20:34 36.481878 -82.401336 137 1522ft 12kts
01-Jul-18 20:35 36.469487 -82.413484 213 1839ft 124kts
01-Jul-18 20:36 36.439735 -82.441092 217 3704ft 142kts
01-Jul-18 20:37 36.408192 -82.471144 217 5615ft 145kts
01-Jul-18 20:38 36.376037 -82.501678 216 7417ft 149kts
01-Jul-18 20:39 36.343058 -82.532965 216 9613ft 151kts
01-Jul-18 20:40 36.309535 -82.564723 215 11614ft 155kts
01-Jul-18 20:41 36.275026 -82.597354 216 13434ft 159kts
01-Jul-18 20:42 36.239439 -82.630993 216 15365ft 164kts
01-Jul-18 20:43 36.203074 -82.665325 216 17111ft 168kts
01-Jul-18 20:44 36.165401 -82.700851 216 18807ft 175kts
01-Jul-18 20:45 36.126656 -82.737342 217 20540ft 178kts
01-Jul-18 20:46 36.086734 -82.774892 217 22083ft 184kts
01-Jul-18 20:47 36.045602 -82.813530 218 23477ft 189kts
01-Jul-18 20:48 36.000871 -82.855520 217 24193ft 222kts
01-Jul-18 20:49 35.947021 -82.905968 217 24183ft 259kts
01-Jul-18 20:50 35.889296 -82.959928 217 24178ft 273kts
01-Jul-18 20:51 35.827928 -83.017181 217 24175ft 280kts
01-Jul-18 20:52 35.759135 -83.059417 191 24169ft 284kts
01-Jul-18 20:53 35.681292 -83.077100 191 24148ft 286kts
01-Jul-18 20:54 35.603397 -83.094738 191 24175ft 285kts
01-Jul-18 20:55 35.525669 -83.112303 191 24204ft 285kts
01-Jul-18 20:56 35.447584 -83.129914 191 24204ft 286kts
01-Jul-18 20:57 35.369664 -83.147453 191 24197ft 286kts
01-Jul-18 20:58 35.291331 -83.165049 191 24181ft 286kts
01-Jul-18 20:59 35.213146 -83.182580 191 24167ft 286kts
01-Jul-18 21:00 35.135021 -83.200061 191 24164ft 286kts
01-Jul-18 21:01 35.056800 -83.217529 191 24165ft 286kts
01-Jul-18 21:02 34.978528 -83.234963 191 24165ft 286kts
01-Jul-18 21:03 34.900402 -83.252343 192 24164ft 287kts
01-Jul-18 21:04 34.822872 -83.269590 188 24167ft 294kts
01-Jul-18 21:05 34.742230 -83.287439 189 24166ft 297kts
01-Jul-18 21:06 34.665694 -83.324804 216 23568ft 318kts
01-Jul-18 21:07 34.592505 -83.391299 215 22119ft 338kts
01-Jul-18 21:08 34.516598 -83.459839 215 20599ft 342kts
01-Jul-18 21:09 34.440786 -83.528127 215 19078ft 330kts
01-Jul-18 21:10 34.369738 -83.591964 214 17657ft 310kts
01-Jul-18 21:11 34.301790 -83.652896 213 16296ft 302kts
01-Jul-18 21:12 34.235300 -83.712402 213 14955ft 296kts
01-Jul-18 21:13 34.169455 -83.769628 208 13830ft 284kts
01-Jul-18 21:14 34.103277 -83.816272 207 12940ft 268kts
01-Jul-18 21:15 34.039531 -83.860622 207 11849ft 263kts
01-Jul-18 21:16 33.975965 -83.904763 207 10703ft 265kts
01-Jul-18 21:17 33.912150 -83.948984 207 9540ft 267kts
01-Jul-18 21:18 33.848737 -83.992842 207 8383ft 269kts
01-Jul-18 21:19 33.783588 -84.037837 208 7188ft 271kts
01-Jul-18 21:20 33.718318 -84.082839 208 5990ft 270kts
01-Jul-18 21:21 33.661081 -84.134169 238 5085ft 248kts
01-Jul-18 21:22 33.649764 -84.213140 270 3867ft 232kts
01-Jul-18 21:23 33.649494 -84.283494 270 3062ft 193kts
01-Jul-18 21:24 33.649543 -84.341835 270 2176ft 150kts
01-Jul-18 21:25 33.649579 -84.382483 270 1482ft 101kts
01-Jul-18 21:26 33.649586 -84.413860 270 1029ft 76kts
01-Jul-18 21:27 33.650267 -84.422383 359 1027ft 3kts
01-Jul-18 21:28 33.652383 -84.424066 260 1027ft 3kts
01-Jul-18 21:29 33.652364 -84.424129 237 1027ft 0kts
01-Jul-18 21:30 33.652364 -84.424129 237 1027ft 0kts
01-Jul-18 21:31 33.652364 -84.424129 237 1027ft 0kts
01-Jul-18 21:32 33.652364 -84.424129 237 1027ft 0kts
01-Jul-18 21:33 33.652364 -84.424129 237 1027ft 0kts
01-Jul-18 21:34 33.652364 -84.424129 237 1027ft 0kts

Navigation Log

Ident Type
Flight plan parsing failed, navigation log unavailable